Tropical Cyclones
[Index]
Main Index Home Page Stock Weather Photos Extreme Storms Discussion Storm News and Storm Chasing Reports Tropical Cyclones / Hurricanes / Typhoons Weather Data and Links Wild Fires / Bushfires Weather Observation Techniques Weather Picture Catalogue Tornado Pictures and Reports Stock Video Footage and DVDs for sale
Season 1947-1948 Tropical Cyclone 194805 Track Map
Season 1947-1948 Summaries: [BoM-AU] [JTWC-AU] [JTWC-SIO] [JTWC-SPAC] [JTWC-SH]
<<- Previous TC | JTWC 1947-1948 Season | Next TC ->>

click for intensity scale information  Lat/long Grid: Show Hide

 Date Labels: Show Hide

Joint Typhoon Warning Centre Cyclone Data

Name: 194805
Number: 65 / 4805

18 Jan 1948 06:00 UTC to 28 Jan 1948 06:00 UTC

    date/time    lat    long     hPa   cat  kts
1948-01-18 06   11.7    72.4                              
1948-01-18 12   11.6    72.0                              
1948-01-18 18   11.7    71.6                              
1948-01-19 00   11.9    71.2                              
1948-01-19 06   12.1    70.8                              
1948-01-19 12   12.2    70.5                              
1948-01-19 18   12.3    70.1                              
1948-01-20 00   12.6    69.7                              
1948-01-20 06   12.8    69.2                              
1948-01-20 12   12.9    68.8                              
1948-01-20 18   13.1    68.4                              
1948-01-21 00   13.2    68.0                              
1948-01-21 06   13.4    67.5                              
1948-01-21 12   13.6    67.1                              
1948-01-21 18   13.8    66.6                              
1948-01-22 00   14.0    66.2                              
1948-01-22 06   14.2    65.8                              
1948-01-22 12   14.6    65.3                              
1948-01-22 18   15.0    64.6                              
1948-01-23 00   15.4    63.7                              
1948-01-23 06   15.8    62.8                              
1948-01-23 12   16.1    62.0                              
1948-01-23 18   16.3    61.2                              
1948-01-24 00   16.5    60.4                              
1948-01-24 06   16.8    59.6                              
1948-01-24 12   16.9    59.0                              
1948-01-24 18   17.0    58.5                              
1948-01-25 00   17.0    57.7                              
1948-01-25 06   17.0    56.9                              
1948-01-25 12   17.2    56.1                              
1948-01-25 18   17.7    55.4                              
1948-01-26 00   18.4    55.0                              
1948-01-26 06   19.2    54.9                              
1948-01-26 12   19.9    54.8                              
1948-01-26 18   20.5    54.7                              
1948-01-27 00   21.1    54.8                              
1948-01-27 06   21.7    54.9                              
1948-01-27 12   22.7    55.0                              
1948-01-27 18   23.8    55.2                              
1948-01-28 00   24.8    55.8                              
1948-01-28 06   25.8    56.8                              
Winds are 1-min average.

Tropical cyclone tracks developed by Michael Bath using data from the Joint Typhoon Warning Centre Best Tracks and Google Maps.


[Australian Severe Weather index] [Copyright Notice] [Email Contacts] [Search This Site] [Privacy Policy]
Document: tropical_cyclone_194805.htm Updated: 18 September 2016